sensor_id;sensor_type;location;lat;lon;timestamp;P1;durP1;ratioP1;P2;durP2;ratioP2
22549;SDS011;11441;57.164;-2.120;2023-05-10T00:02:22;17.83;;;2.85;;
22549;SDS011;11441;57.164;-2.120;2023-05-10T00:04:51;11.77;;;2.22;;
22549;SDS011;11441;57.164;-2.120;2023-05-10T00:07:18;29.10;;;3.25;;
22549;SDS011;11441;57.164;-2.120;2023-05-10T00:09:45;23.27;;;2.95;;
22549;SDS011;11441;57.164;-2.120;2023-05-10T00:12:12;32.15;;;3.08;;
22549;SDS011;11441;57.164;-2.120;2023-05-10T00:17:26;41.67;;;4.28;;
22549;SDS011;11441;57.164;-2.120;2023-05-10T00:19:52;44.47;;;4.05;;
22549;SDS011;11441;57.164;-2.120;2023-05-10T00:22:37;37.78;;;3.70;;
22549;SDS011;11441;57.164;-2.120;2023-05-10T00:25:03;30.92;;;3.40;;
22549;SDS011;11441;57.164;-2.120;2023-05-10T00:27:31;39.55;;;4.55;;
22549;SDS011;11441;57.164;-2.120;2023-05-10T00:29:58;17.23;;;3.28;;
22549;SDS011;11441;57.164;-2.120;2023-05-10T00:32:24;38.40;;;4.13;;
22549;SDS011;11441;57.164;-2.120;2023-05-10T00:34:51;27.48;;;3.67;;
22549;SDS011;11441;57.164;-2.120;2023-05-10T00:37:18;50.58;;;5.13;;
22549;SDS011;11441;57.164;-2.120;2023-05-10T00:39:45;19.95;;;3.75;;
22549;SDS011;11441;57.164;-2.120;2023-05-10T00:42:12;15.60;;;3.13;;
22549;SDS011;11441;57.164;-2.120;2023-05-10T00:44:40;18.80;;;3.80;;
22549;SDS011;11441;57.164;-2.120;2023-05-10T00:47:07;34.53;;;4.30;;
22549;SDS011;11441;57.164;-2.120;2023-05-10T00:49:53;32.28;;;4.10;;
22549;SDS011;11441;57.164;-2.120;2023-05-10T00:52:20;30.52;;;4.80;;
22549;SDS011;11441;57.164;-2.120;2023-05-10T00:54:47;11.85;;;3.33;;
22549;SDS011;11441;57.164;-2.120;2023-05-10T00:57:14;36.63;;;4.43;;
22549;SDS011;11441;57.164;-2.120;2023-05-10T00:59:42;26.70;;;4.32;;
22549;SDS011;11441;57.164;-2.120;2023-05-10T01:02:09;34.45;;;4.70;;
22549;SDS011;11441;57.164;-2.120;2023-05-10T01:04:36;15.95;;;3.40;;
22549;SDS011;11441;57.164;-2.120;2023-05-10T01:07:04;34.90;;;4.55;;
22549;SDS011;11441;57.164;-2.120;2023-05-10T01:09:31;24.40;;;4.20;;
22549;SDS011;11441;57.164;-2.120;2023-05-10T01:11:59;15.80;;;3.58;;
22549;SDS011;11441;57.164;-2.120;2023-05-10T01:14:28;33.60;;;4.97;;
22549;SDS011;11441;57.164;-2.120;2023-05-10T01:16:55;25.45;;;4.55;;
22549;SDS011;11441;57.164;-2.120;2023-05-10T01:19:41;43.30;;;4.03;;
22549;SDS011;11441;57.164;-2.120;2023-05-10T01:34:25;32.47;;;4.20;;
22549;SDS011;11441;57.164;-2.120;2023-05-10T01:37:09;16.98;;;3.25;;
22549;SDS011;11441;57.164;-2.120;2023-05-10T01:39:47;18.52;;;3.15;;
22549;SDS011;11441;57.164;-2.120;2023-05-10T01:42:26;9.80;;;2.50;;
22549;SDS011;11441;57.164;-2.120;2023-05-10T01:45:02;6.30;;;2.35;;
22549;SDS011;11441;57.164;-2.120;2023-05-10T01:47:40;8.73;;;3.30;;
22549;SDS011;11441;57.164;-2.120;2023-05-10T01:50:15;35.05;;;3.35;;
22549;SDS011;11441;57.164;-2.120;2023-05-10T01:52:53;13.55;;;3.45;;
22549;SDS011;11441;57.164;-2.120;2023-05-10T01:55:23;16.63;;;3.15;;
22549;SDS011;11441;57.164;-2.120;2023-05-10T01:57:53;76.93;;;7.20;;
22549;SDS011;11441;57.164;-2.120;2023-05-10T02:00:26;24.92;;;3.83;;
22549;SDS011;11441;57.164;-2.120;2023-05-10T02:02:56;36.63;;;4.75;;
22549;SDS011;11441;57.164;-2.120;2023-05-10T02:05:24;20.95;;;3.10;;
22549;SDS011;11441;57.164;-2.120;2023-05-10T02:07:53;39.72;;;4.75;;
22549;SDS011;11441;57.164;-2.120;2023-05-10T02:10:21;36.75;;;4.60;;
22549;SDS011;11441;57.164;-2.120;2023-05-10T02:12:48;43.42;;;4.43;;
22549;SDS011;11441;57.164;-2.120;2023-05-10T02:15:18;38.78;;;4.63;;
22549;SDS011;11441;57.164;-2.120;2023-05-10T02:17:48;26.02;;;3.00;;
22549;SDS011;11441;57.164;-2.120;2023-05-10T02:20:16;29.42;;;3.30;;
22549;SDS011;11441;57.164;-2.120;2023-05-10T02:22:45;46.42;;;4.53;;
22549;SDS011;11441;57.164;-2.120;2023-05-10T02:25:15;44.85;;;4.72;;
22549;SDS011;11441;57.164;-2.120;2023-05-10T02:27:46;68.55;;;5.25;;
22549;SDS011;11441;57.164;-2.120;2023-05-10T02:30:15;67.05;;;5.80;;
22549;SDS011;11441;57.164;-2.120;2023-05-10T02:32:43;46.78;;;4.55;;
22549;SDS011;11441;57.164;-2.120;2023-05-10T02:35:11;41.13;;;4.45;;
22549;SDS011;11441;57.164;-2.120;2023-05-10T02:37:40;44.22;;;3.80;;
22549;SDS011;11441;57.164;-2.120;2023-05-10T02:40:08;42.58;;;3.85;;
22549;SDS011;11441;57.164;-2.120;2023-05-10T02:42:36;35.83;;;2.90;;
22549;SDS011;11441;57.164;-2.120;2023-05-10T02:45:06;13.80;;;1.92;;
22549;SDS011;11441;57.164;-2.120;2023-05-10T02:47:37;7.22;;;2.17;;
22549;SDS011;11441;57.164;-2.120;2023-05-10T02:50:05;34.22;;;3.50;;
22549;SDS011;11441;57.164;-2.120;2023-05-10T02:53:06;40.22;;;3.08;;
22549;SDS011;11441;57.164;-2.120;2023-05-10T02:55:35;43.00;;;3.28;;
22549;SDS011;11441;57.164;-2.120;2023-05-10T02:58:04;32.63;;;3.05;;
22549;SDS011;11441;57.164;-2.120;2023-05-10T03:00:31;32.60;;;3.95;;
22549;SDS011;11441;57.164;-2.120;2023-05-10T03:02:58;17.92;;;2.85;;
22549;SDS011;11441;57.164;-2.120;2023-05-10T03:05:27;22.85;;;3.03;;
22549;SDS011;11441;57.164;-2.120;2023-05-10T03:07:55;24.50;;;2.00;;
22549;SDS011;11441;57.164;-2.120;2023-05-10T03:10:24;46.15;;;4.03;;
22549;SDS011;11441;57.164;-2.120;2023-05-10T03:15:56;32.05;;;3.30;;
22549;SDS011;11441;57.164;-2.120;2023-05-10T03:18:35;35.00;;;2.85;;
22549;SDS011;11441;57.164;-2.120;2023-05-10T03:21:08;30.45;;;3.28;;
22549;SDS011;11441;57.164;-2.120;2023-05-10T03:24:14;23.20;;;3.33;;
22549;SDS011;11441;57.164;-2.120;2023-05-10T03:26:35;39.20;;;3.95;;
22549;SDS011;11441;57.164;-2.120;2023-05-10T03:29:12;41.97;;;3.53;;
22549;SDS011;11441;57.164;-2.120;2023-05-10T03:31:41;51.85;;;4.32;;
22549;SDS011;11441;57.164;-2.120;2023-05-10T03:34:08;36.38;;;4.88;;
22549;SDS011;11441;57.164;-2.120;2023-05-10T03:36:35;81.88;;;7.57;;
22549;SDS011;11441;57.164;-2.120;2023-05-10T03:39:02;76.28;;;7.25;;
22549;SDS011;11441;57.164;-2.120;2023-05-10T03:41:29;31.75;;;4.53;;
22549;SDS011;11441;57.164;-2.120;2023-05-10T03:43:56;36.20;;;5.90;;
22549;SDS011;11441;57.164;-2.120;2023-05-10T03:46:23;57.78;;;7.55;;
22549;SDS011;11441;57.164;-2.120;2023-05-10T03:48:50;29.02;;;6.70;;
22549;SDS011;11441;57.164;-2.120;2023-05-10T03:51:17;44.05;;;7.35;;
22549;SDS011;11441;57.164;-2.120;2023-05-10T03:53:44;56.45;;;8.25;;
22549;SDS011;11441;57.164;-2.120;2023-05-10T03:56:11;44.13;;;8.05;;
22549;SDS011;11441;57.164;-2.120;2023-05-10T03:58:38;37.42;;;8.05;;
22549;SDS011;11441;57.164;-2.120;2023-05-10T04:01:05;40.83;;;8.63;;
22549;SDS011;11441;57.164;-2.120;2023-05-10T04:03:32;36.60;;;7.97;;
22549;SDS011;11441;57.164;-2.120;2023-05-10T04:06:00;31.42;;;7.75;;
22549;SDS011;11441;57.164;-2.120;2023-05-10T04:08:28;33.95;;;8.95;;
22549;SDS011;11441;57.164;-2.120;2023-05-10T04:11:08;18.92;;;8.23;;
22549;SDS011;11441;57.164;-2.120;2023-05-10T04:13:55;22.48;;;7.32;;
22549;SDS011;11441;57.164;-2.120;2023-05-10T04:16:22;26.23;;;8.88;;
22549;SDS011;11441;57.164;-2.120;2023-05-10T04:18:49;37.28;;;8.77;;
22549;SDS011;11441;57.164;-2.120;2023-05-10T04:21:36;35.17;;;7.50;;
22549;SDS011;11441;57.164;-2.120;2023-05-10T04:24:02;40.33;;;7.30;;
22549;SDS011;11441;57.164;-2.120;2023-05-10T04:26:29;30.40;;;6.05;;
22549;SDS011;11441;57.164;-2.120;2023-05-10T04:28:57;48.00;;;5.68;;
22549;SDS011;11441;57.164;-2.120;2023-05-10T04:31:24;30.33;;;5.35;;
22549;SDS011;11441;57.164;-2.120;2023-05-10T04:33:51;36.15;;;6.15;;
22549;SDS011;11441;57.164;-2.120;2023-05-10T04:36:18;19.38;;;4.65;;
22549;SDS011;11441;57.164;-2.120;2023-05-10T04:38:45;24.52;;;4.55;;
22549;SDS011;11441;57.164;-2.120;2023-05-10T04:41:12;25.00;;;5.50;;
22549;SDS011;11441;57.164;-2.120;2023-05-10T04:43:39;31.20;;;4.80;;
22549;SDS011;11441;57.164;-2.120;2023-05-10T04:46:06;42.35;;;4.65;;
22549;SDS011;11441;57.164;-2.120;2023-05-10T04:48:33;23.75;;;4.03;;
22549;SDS011;11441;57.164;-2.120;2023-05-10T04:51:00;14.98;;;3.35;;
22549;SDS011;11441;57.164;-2.120;2023-05-10T04:53:27;18.33;;;3.72;;
22549;SDS011;11441;57.164;-2.120;2023-05-10T04:55:54;17.58;;;3.97;;
22549;SDS011;11441;57.164;-2.120;2023-05-10T05:01:07;24.27;;;3.63;;
22549;SDS011;11441;57.164;-2.120;2023-05-10T05:03:36;14.70;;;3.22;;
22549;SDS011;11441;57.164;-2.120;2023-05-10T05:06:03;26.13;;;3.30;;
22549;SDS011;11441;57.164;-2.120;2023-05-10T05:08:30;14.25;;;2.85;;
22549;SDS011;11441;57.164;-2.120;2023-05-10T05:10:57;9.32;;;2.30;;
22549;SDS011;11441;57.164;-2.120;2023-05-10T05:16:11;12.07;;;2.42;;
22549;SDS011;11441;57.164;-2.120;2023-05-10T05:18:38;10.80;;;2.45;;
22549;SDS011;11441;57.164;-2.120;2023-05-10T05:21:15;7.68;;;2.42;;
22549;SDS011;11441;57.164;-2.120;2023-05-10T05:23:43;10.13;;;2.45;;
22549;SDS011;11441;57.164;-2.120;2023-05-10T05:26:10;7.85;;;2.90;;
22549;SDS011;11441;57.164;-2.120;2023-05-10T05:28:37;5.97;;;2.30;;
22549;SDS011;11441;57.164;-2.120;2023-05-10T05:31:05;7.15;;;2.50;;
22549;SDS011;11441;57.164;-2.120;2023-05-10T05:33:32;6.68;;;2.70;;
22549;SDS011;11441;57.164;-2.120;2023-05-10T05:36:00;4.57;;;2.63;;
22549;SDS011;11441;57.164;-2.120;2023-05-10T05:38:28;8.60;;;2.22;;
22549;SDS011;11441;57.164;-2.120;2023-05-10T05:40:55;11.27;;;2.67;;
22549;SDS011;11441;57.164;-2.120;2023-05-10T05:43:22;13.07;;;2.95;;
22549;SDS011;11441;57.164;-2.120;2023-05-10T05:48:35;16.98;;;2.90;;
22549;SDS011;11441;57.164;-2.120;2023-05-10T05:51:02;9.10;;;2.90;;
22549;SDS011;11441;57.164;-2.120;2023-05-10T05:53:31;14.80;;;3.22;;
22549;SDS011;11441;57.164;-2.120;2023-05-10T05:55:58;18.35;;;3.70;;
22549;SDS011;11441;57.164;-2.120;2023-05-10T05:58:25;19.00;;;3.83;;
22549;SDS011;11441;57.164;-2.120;2023-05-10T06:00:52;16.00;;;3.83;;
22549;SDS011;11441;57.164;-2.120;2023-05-10T06:03:19;7.50;;;4.00;;
22549;SDS011;11441;57.164;-2.120;2023-05-10T06:05:46;24.88;;;4.57;;
22549;SDS011;11441;57.164;-2.120;2023-05-10T06:08:13;8.73;;;3.70;;
22549;SDS011;11441;57.164;-2.120;2023-05-10T06:10:40;7.95;;;4.00;;
22549;SDS011;11441;57.164;-2.120;2023-05-10T06:13:07;15.05;;;4.57;;
22549;SDS011;11441;57.164;-2.120;2023-05-10T06:15:34;10.80;;;4.43;;
22549;SDS011;11441;57.164;-2.120;2023-05-10T06:18:01;7.22;;;3.88;;
22549;SDS011;11441;57.164;-2.120;2023-05-10T06:20:28;10.55;;;5.10;;
22549;SDS011;11441;57.164;-2.120;2023-05-10T06:22:55;7.18;;;4.85;;
22549;SDS011;11441;57.164;-2.120;2023-05-10T06:25:21;9.13;;;4.97;;
22549;SDS011;11441;57.164;-2.120;2023-05-10T06:27:48;8.57;;;4.15;;
22549;SDS011;11441;57.164;-2.120;2023-05-10T06:30:19;11.32;;;5.30;;
22549;SDS011;11441;57.164;-2.120;2023-05-10T06:32:46;5.80;;;4.57;;
22549;SDS011;11441;57.164;-2.120;2023-05-10T06:35:13;6.13;;;4.50;;
22549;SDS011;11441;57.164;-2.120;2023-05-10T06:37:40;8.60;;;4.47;;
22549;SDS011;11441;57.164;-2.120;2023-05-10T06:40:07;5.22;;;3.22;;
22549;SDS011;11441;57.164;-2.120;2023-05-10T06:42:35;8.60;;;5.75;;
22549;SDS011;11441;57.164;-2.120;2023-05-10T06:45:02;13.10;;;5.88;;
22549;SDS011;11441;57.164;-2.120;2023-05-10T06:47:30;14.95;;;6.15;;
22549;SDS011;11441;57.164;-2.120;2023-05-10T06:49:57;8.25;;;4.57;;
22549;SDS011;11441;57.164;-2.120;2023-05-10T06:52:23;5.82;;;3.72;;
22549;SDS011;11441;57.164;-2.120;2023-05-10T06:54:50;8.38;;;3.97;;
22549;SDS011;11441;57.164;-2.120;2023-05-10T06:57:17;7.80;;;4.25;;
22549;SDS011;11441;57.164;-2.120;2023-05-10T06:59:57;8.35;;;3.88;;
22549;SDS011;11441;57.164;-2.120;2023-05-10T07:02:25;10.57;;;4.35;;
22549;SDS011;11441;57.164;-2.120;2023-05-10T07:05:10;11.10;;;4.85;;
22549;SDS011;11441;57.164;-2.120;2023-05-10T07:07:38;9.95;;;4.25;;
22549;SDS011;11441;57.164;-2.120;2023-05-10T07:10:05;7.88;;;3.58;;
22549;SDS011;11441;57.164;-2.120;2023-05-10T07:12:32;11.30;;;5.10;;
22549;SDS011;11441;57.164;-2.120;2023-05-10T07:14:59;7.53;;;4.50;;
22549;SDS011;11441;57.164;-2.120;2023-05-10T07:17:26;11.27;;;4.55;;
22549;SDS011;11441;57.164;-2.120;2023-05-10T07:19:53;15.85;;;4.45;;
22549;SDS011;11441;57.164;-2.120;2023-05-10T07:22:19;4.72;;;2.83;;
22549;SDS011;11441;57.164;-2.120;2023-05-10T07:24:46;7.22;;;4.47;;
22549;SDS011;11441;57.164;-2.120;2023-05-10T07:27:13;6.53;;;3.60;;
22549;SDS011;11441;57.164;-2.120;2023-05-10T07:29:40;7.47;;;4.22;;
22549;SDS011;11441;57.164;-2.120;2023-05-10T07:32:07;3.85;;;2.28;;
22549;SDS011;11441;57.164;-2.120;2023-05-10T07:34:34;4.50;;;2.65;;
22549;SDS011;11441;57.164;-2.120;2023-05-10T07:37:01;3.40;;;2.55;;
22549;SDS011;11441;57.164;-2.120;2023-05-10T07:39:28;2.80;;;2.42;;
22549;SDS011;11441;57.164;-2.120;2023-05-10T07:41:55;2.53;;;2.33;;
22549;SDS011;11441;57.164;-2.120;2023-05-10T07:44:22;4.25;;;2.67;;
22549;SDS011;11441;57.164;-2.120;2023-05-10T07:46:49;6.35;;;3.25;;
22549;SDS011;11441;57.164;-2.120;2023-05-10T07:49:16;6.00;;;3.40;;
22549;SDS011;11441;57.164;-2.120;2023-05-10T07:51:43;6.88;;;3.97;;
22549;SDS011;11441;57.164;-2.120;2023-05-10T07:54:10;6.53;;;4.22;;
22549;SDS011;11441;57.164;-2.120;2023-05-10T07:56:37;4.22;;;3.72;;
22549;SDS011;11441;57.164;-2.120;2023-05-10T07:59:03;3.63;;;2.83;;
22549;SDS011;11441;57.164;-2.120;2023-05-10T08:01:33;4.85;;;3.05;;
22549;SDS011;11441;57.164;-2.120;2023-05-10T08:04:00;8.23;;;4.78;;
22549;SDS011;11441;57.164;-2.120;2023-05-10T08:06:28;4.55;;;4.07;;
22549;SDS011;11441;57.164;-2.120;2023-05-10T08:08:56;5.38;;;3.03;;
22549;SDS011;11441;57.164;-2.120;2023-05-10T08:11:24;5.32;;;3.15;;
22549;SDS011;11441;57.164;-2.120;2023-05-10T08:13:51;4.55;;;3.88;;
22549;SDS011;11441;57.164;-2.120;2023-05-10T08:16:35;4.28;;;3.35;;
22549;SDS011;11441;57.164;-2.120;2023-05-10T08:19:02;4.63;;;3.13;;
22549;SDS011;11441;57.164;-2.120;2023-05-10T08:21:29;3.83;;;3.22;;
22549;SDS011;11441;57.164;-2.120;2023-05-10T08:23:57;5.05;;;4.55;;
22549;SDS011;11441;57.164;-2.120;2023-05-10T08:26:24;4.28;;;3.58;;
22549;SDS011;11441;57.164;-2.120;2023-05-10T08:28:51;2.65;;;2.33;;
22549;SDS011;11441;57.164;-2.120;2023-05-10T08:31:18;3.88;;;3.50;;
22549;SDS011;11441;57.164;-2.120;2023-05-10T08:33:45;6.35;;;3.72;;
22549;SDS011;11441;57.164;-2.120;2023-05-10T08:36:12;6.13;;;4.03;;
22549;SDS011;11441;57.164;-2.120;2023-05-10T08:38:40;3.08;;;2.75;;
22549;SDS011;11441;57.164;-2.120;2023-05-10T08:41:07;3.38;;;3.00;;
22549;SDS011;11441;57.164;-2.120;2023-05-10T08:43:34;3.22;;;2.85;;
22549;SDS011;11441;57.164;-2.120;2023-05-10T08:46:02;4.70;;;3.78;;
22549;SDS011;11441;57.164;-2.120;2023-05-10T08:48:31;6.70;;;4.10;;
22549;SDS011;11441;57.164;-2.120;2023-05-10T08:51:00;7.63;;;4.72;;
22549;SDS011;11441;57.164;-2.120;2023-05-10T08:53:30;4.22;;;3.65;;
22549;SDS011;11441;57.164;-2.120;2023-05-10T08:56:00;8.18;;;5.97;;
22549;SDS011;11441;57.164;-2.120;2023-05-10T08:58:28;5.05;;;4.50;;
22549;SDS011;11441;57.164;-2.120;2023-05-10T09:00:56;6.43;;;5.38;;
22549;SDS011;11441;57.164;-2.120;2023-05-10T09:03:24;4.50;;;4.00;;
22549;SDS011;11441;57.164;-2.120;2023-05-10T09:05:51;4.95;;;3.47;;
22549;SDS011;11441;57.164;-2.120;2023-05-10T09:08:18;5.65;;;5.03;;
22549;SDS011;11441;57.164;-2.120;2023-05-10T09:10:46;5.10;;;4.60;;
22549;SDS011;11441;57.164;-2.120;2023-05-10T09:13:14;5.40;;;4.32;;
22549;SDS011;11441;57.164;-2.120;2023-05-10T09:15:44;3.33;;;3.03;;
22549;SDS011;11441;57.164;-2.120;2023-05-10T09:18:12;2.35;;;2.05;;
22549;SDS011;11441;57.164;-2.120;2023-05-10T09:20:39;7.15;;;4.88;;
22549;SDS011;11441;57.164;-2.120;2023-05-10T09:23:06;7.72;;;5.28;;
22549;SDS011;11441;57.164;-2.120;2023-05-10T09:25:33;5.28;;;3.78;;
22549;SDS011;11441;57.164;-2.120;2023-05-10T09:30:46;3.38;;;2.75;;
22549;SDS011;11441;57.164;-2.120;2023-05-10T09:33:20;4.88;;;3.08;;
22549;SDS011;11441;57.164;-2.120;2023-05-10T09:35:47;2.78;;;2.15;;
22549;SDS011;11441;57.164;-2.120;2023-05-10T09:38:17;4.50;;;3.42;;
22549;SDS011;11441;57.164;-2.120;2023-05-10T09:40:50;5.70;;;3.38;;
22549;SDS011;11441;57.164;-2.120;2023-05-10T09:43:22;2.25;;;2.05;;
22549;SDS011;11441;57.164;-2.120;2023-05-10T09:45:49;1.67;;;1.55;;
22549;SDS011;11441;57.164;-2.120;2023-05-10T09:48:16;3.97;;;2.60;;
22549;SDS011;11441;57.164;-2.120;2023-05-10T09:50:43;2.05;;;1.65;;
22549;SDS011;11441;57.164;-2.120;2023-05-10T09:53:10;3.35;;;2.80;;
22549;SDS011;11441;57.164;-2.120;2023-05-10T09:55:41;4.07;;;2.47;;
22549;SDS011;11441;57.164;-2.120;2023-05-10T10:01:03;3.95;;;3.00;;
22549;SDS011;11441;57.164;-2.120;2023-05-10T10:03:30;3.40;;;3.10;;
22549;SDS011;11441;57.164;-2.120;2023-05-10T10:05:57;5.18;;;3.83;;
22549;SDS011;11441;57.164;-2.120;2023-05-10T10:08:24;3.80;;;3.15;;
22549;SDS011;11441;57.164;-2.120;2023-05-10T10:10:51;4.78;;;3.78;;
22549;SDS011;11441;57.164;-2.120;2023-05-10T10:13:18;4.25;;;3.25;;
22549;SDS011;11441;57.164;-2.120;2023-05-10T10:15:45;6.68;;;4.75;;
22549;SDS011;11441;57.164;-2.120;2023-05-10T10:18:17;3.78;;;3.42;;
22549;SDS011;11441;57.164;-2.120;2023-05-10T10:20:49;4.45;;;3.60;;
22549;SDS011;11441;57.164;-2.120;2023-05-10T10:23:17;6.35;;;3.17;;
22549;SDS011;11441;57.164;-2.120;2023-05-10T10:25:44;5.15;;;4.35;;
22549;SDS011;11441;57.164;-2.120;2023-05-10T10:31:32;5.03;;;4.32;;
22549;SDS011;11441;57.164;-2.120;2023-05-10T10:34:06;6.88;;;3.53;;
22549;SDS011;11441;57.164;-2.120;2023-05-10T10:36:45;4.78;;;2.80;;
22549;SDS011;11441;57.164;-2.120;2023-05-10T10:39:13;3.90;;;3.00;;
22549;SDS011;11441;57.164;-2.120;2023-05-10T10:44:33;2.92;;;2.55;;
22549;SDS011;11441;57.164;-2.120;2023-05-10T10:52:40;3.00;;;2.80;;
22549;SDS011;11441;57.164;-2.120;2023-05-10T10:55:02;3.20;;;1.48;;
22549;SDS011;11441;57.164;-2.120;2023-05-10T10:57:53;3.97;;;2.38;;
22549;SDS011;11441;57.164;-2.120;2023-05-10T11:00:29;2.95;;;2.70;;
22549;SDS011;11441;57.164;-2.120;2023-05-10T11:02:59;2.70;;;2.45;;
22549;SDS011;11441;57.164;-2.120;2023-05-10T11:16:12;2.50;;;2.30;;
22549;SDS011;11441;57.164;-2.120;2023-05-10T11:18:53;2.40;;;2.20;;
22549;SDS011;11441;57.164;-2.120;2023-05-10T11:21:31;2.55;;;2.15;;
22549;SDS011;11441;57.164;-2.120;2023-05-10T11:23:59;3.22;;;2.53;;
22549;SDS011;11441;57.164;-2.120;2023-05-10T11:26:31;5.40;;;2.65;;
22549;SDS011;11441;57.164;-2.120;2023-05-10T11:29:19;2.58;;;2.38;;
22549;SDS011;11441;57.164;-2.120;2023-05-10T11:31:47;4.68;;;2.88;;
22549;SDS011;11441;57.164;-2.120;2023-05-10T11:34:27;2.70;;;2.50;;
22549;SDS011;11441;57.164;-2.120;2023-05-10T11:36:57;4.13;;;2.38;;
22549;SDS011;11441;57.164;-2.120;2023-05-10T11:39:27;3.22;;;2.83;;
22549;SDS011;11441;57.164;-2.120;2023-05-10T11:41:55;6.18;;;3.30;;
22549;SDS011;11441;57.164;-2.120;2023-05-10T11:44:22;4.72;;;2.90;;
22549;SDS011;11441;57.164;-2.120;2023-05-10T11:47:09;6.50;;;3.38;;
22549;SDS011;11441;57.164;-2.120;2023-05-10T11:49:56;3.10;;;2.80;;
22549;SDS011;11441;57.164;-2.120;2023-05-10T11:52:42;3.80;;;3.08;;
22549;SDS011;11441;57.164;-2.120;2023-05-10T11:55:26;3.72;;;2.90;;
22549;SDS011;11441;57.164;-2.120;2023-05-10T11:57:53;3.65;;;3.35;;
22549;SDS011;11441;57.164;-2.120;2023-05-10T12:00:21;2.88;;;2.67;;
22549;SDS011;11441;57.164;-2.120;2023-05-10T12:02:48;5.45;;;4.35;;
22549;SDS011;11441;57.164;-2.120;2023-05-10T12:05:15;3.50;;;3.17;;
22549;SDS011;11441;57.164;-2.120;2023-05-10T12:10:38;6.40;;;3.85;;
22549;SDS011;11441;57.164;-2.120;2023-05-10T12:13:10;5.35;;;4.18;;
22549;SDS011;11441;57.164;-2.120;2023-05-10T12:15:38;6.80;;;5.20;;
22549;SDS011;11441;57.164;-2.120;2023-05-10T12:18:05;5.38;;;4.88;;
22549;SDS011;11441;57.164;-2.120;2023-05-10T12:20:34;6.30;;;5.63;;
22549;SDS011;11441;57.164;-2.120;2023-05-10T12:23:01;5.30;;;4.05;;
22549;SDS011;11441;57.164;-2.120;2023-05-10T12:25:30;9.52;;;5.43;;
22549;SDS011;11441;57.164;-2.120;2023-05-10T12:27:58;5.97;;;5.18;;
22549;SDS011;11441;57.164;-2.120;2023-05-10T12:30:30;6.45;;;5.18;;
22549;SDS011;11441;57.164;-2.120;2023-05-10T12:33:01;5.85;;;5.07;;
22549;SDS011;11441;57.164;-2.120;2023-05-10T12:35:51;4.28;;;3.88;;
22549;SDS011;11441;57.164;-2.120;2023-05-10T12:38:27;5.80;;;4.50;;
22549;SDS011;11441;57.164;-2.120;2023-05-10T12:41:02;4.40;;;3.85;;
22549;SDS011;11441;57.164;-2.120;2023-05-10T12:43:32;5.78;;;4.32;;
22549;SDS011;11441;57.164;-2.120;2023-05-10T12:46:08;4.03;;;3.65;;
22549;SDS011;11441;57.164;-2.120;2023-05-10T12:48:37;4.38;;;3.97;;
22549;SDS011;11441;57.164;-2.120;2023-05-10T12:51:06;6.40;;;4.78;;
22549;SDS011;11441;57.164;-2.120;2023-05-10T12:53:38;6.63;;;4.65;;
22549;SDS011;11441;57.164;-2.120;2023-05-10T12:56:10;4.43;;;3.95;;
22549;SDS011;11441;57.164;-2.120;2023-05-10T12:58:36;5.15;;;4.13;;
22549;SDS011;11441;57.164;-2.120;2023-05-10T13:01:04;9.52;;;5.25;;
22549;SDS011;11441;57.164;-2.120;2023-05-10T13:03:32;4.72;;;4.22;;
22549;SDS011;11441;57.164;-2.120;2023-05-10T13:05:59;6.68;;;4.88;;
22549;SDS011;11441;57.164;-2.120;2023-05-10T13:08:25;7.13;;;5.38;;
22549;SDS011;11441;57.164;-2.120;2023-05-10T13:11:29;5.32;;;4.78;;
22549;SDS011;11441;57.164;-2.120;2023-05-10T13:13:56;8.98;;;5.70;;
22549;SDS011;11441;57.164;-2.120;2023-05-10T13:16:41;6.50;;;5.38;;
22549;SDS011;11441;57.164;-2.120;2023-05-10T13:21:53;5.05;;;4.65;;
22549;SDS011;11441;57.164;-2.120;2023-05-10T13:24:20;6.15;;;5.18;;
22549;SDS011;11441;57.164;-2.120;2023-05-10T13:26:47;5.72;;;4.55;;
22549;SDS011;11441;57.164;-2.120;2023-05-10T13:29:14;7.80;;;5.63;;
22549;SDS011;11441;57.164;-2.120;2023-05-10T13:31:43;6.50;;;5.15;;
22549;SDS011;11441;57.164;-2.120;2023-05-10T13:34:28;4.80;;;3.30;;
22549;SDS011;11441;57.164;-2.120;2023-05-10T13:36:55;6.15;;;4.53;;
22549;SDS011;11441;57.164;-2.120;2023-05-10T13:39:22;6.63;;;4.25;;
22549;SDS011;11441;57.164;-2.120;2023-05-10T13:41:49;10.60;;;5.32;;
22549;SDS011;11441;57.164;-2.120;2023-05-10T13:44:16;9.38;;;4.38;;
22549;SDS011;11441;57.164;-2.120;2023-05-10T13:46:42;5.43;;;3.67;;
22549;SDS011;11441;57.164;-2.120;2023-05-10T13:49:10;8.35;;;4.53;;
22549;SDS011;11441;57.164;-2.120;2023-05-10T13:51:36;6.50;;;4.05;;
22549;SDS011;11441;57.164;-2.120;2023-05-10T13:54:03;4.80;;;3.83;;
22549;SDS011;11441;57.164;-2.120;2023-05-10T13:56:30;9.55;;;4.05;;
22549;SDS011;11441;57.164;-2.120;2023-05-10T13:59:15;7.10;;;4.28;;
22549;SDS011;11441;57.164;-2.120;2023-05-10T14:01:42;8.05;;;4.80;;
22549;SDS011;11441;57.164;-2.120;2023-05-10T14:04:10;5.15;;;3.75;;
22549;SDS011;11441;57.164;-2.120;2023-05-10T14:06:37;8.10;;;5.18;;
22549;SDS011;11441;57.164;-2.120;2023-05-10T14:09:04;6.18;;;4.40;;
22549;SDS011;11441;57.164;-2.120;2023-05-10T14:11:31;6.07;;;4.90;;
22549;SDS011;11441;57.164;-2.120;2023-05-10T14:13:58;6.75;;;5.07;;
22549;SDS011;11441;57.164;-2.120;2023-05-10T14:16:25;9.60;;;6.30;;
22549;SDS011;11441;57.164;-2.120;2023-05-10T14:18:52;8.43;;;5.28;;
22549;SDS011;11441;57.164;-2.120;2023-05-10T14:21:19;9.15;;;6.30;;
22549;SDS011;11441;57.164;-2.120;2023-05-10T14:23:46;10.25;;;5.30;;
22549;SDS011;11441;57.164;-2.120;2023-05-10T14:26:13;3.78;;;3.25;;
22549;SDS011;11441;57.164;-2.120;2023-05-10T14:28:40;7.93;;;4.35;;
22549;SDS011;11441;57.164;-2.120;2023-05-10T14:31:07;8.75;;;4.05;;
22549;SDS011;11441;57.164;-2.120;2023-05-10T14:33:33;4.93;;;3.17;;
22549;SDS011;11441;57.164;-2.120;2023-05-10T14:36:18;7.65;;;3.90;;
22549;SDS011;11441;57.164;-2.120;2023-05-10T14:38:45;6.78;;;2.90;;
22549;SDS011;11441;57.164;-2.120;2023-05-10T14:41:12;6.70;;;2.53;;
22549;SDS011;11441;57.164;-2.120;2023-05-10T14:46:27;2.30;;;1.77;;
22549;SDS011;11441;57.164;-2.120;2023-05-10T14:48:54;8.05;;;2.42;;
22549;SDS011;11441;57.164;-2.120;2023-05-10T14:51:21;5.65;;;2.08;;
22549;SDS011;11441;57.164;-2.120;2023-05-10T14:53:48;1.77;;;1.58;;
22549;SDS011;11441;57.164;-2.120;2023-05-10T14:56:15;3.95;;;1.95;;
22549;SDS011;11441;57.164;-2.120;2023-05-10T14:58:42;4.10;;;1.55;;
22549;SDS011;11441;57.164;-2.120;2023-05-10T15:01:28;4.93;;;1.67;;
22549;SDS011;11441;57.164;-2.120;2023-05-10T15:03:55;1.73;;;1.13;;
22549;SDS011;11441;57.164;-2.120;2023-05-10T15:06:23;3.60;;;1.48;;
22549;SDS011;11441;57.164;-2.120;2023-05-10T15:08:51;2.60;;;1.25;;
22549;SDS011;11441;57.164;-2.120;2023-05-10T15:11:18;2.70;;;1.08;;
22549;SDS011;11441;57.164;-2.120;2023-05-10T15:13:45;2.90;;;1.60;;
22549;SDS011;11441;57.164;-2.120;2023-05-10T15:16:12;3.38;;;1.27;;
22549;SDS011;11441;57.164;-2.120;2023-05-10T15:18:38;2.20;;;1.25;;
22549;SDS011;11441;57.164;-2.120;2023-05-10T15:21:05;2.25;;;1.85;;
22549;SDS011;11441;57.164;-2.120;2023-05-10T15:23:32;5.00;;;2.38;;
22549;SDS011;11441;57.164;-2.120;2023-05-10T15:26:00;3.75;;;1.80;;
22549;SDS011;11441;57.164;-2.120;2023-05-10T15:28:27;2.05;;;1.52;;
22549;SDS011;11441;57.164;-2.120;2023-05-10T15:30:54;2.85;;;1.95;;
22549;SDS011;11441;57.164;-2.120;2023-05-10T15:33:22;4.82;;;2.38;;
22549;SDS011;11441;57.164;-2.120;2023-05-10T15:38:35;2.75;;;1.90;;
22549;SDS011;11441;57.164;-2.120;2023-05-10T15:41:20;4.55;;;2.40;;
22549;SDS011;11441;57.164;-2.120;2023-05-10T15:43:47;5.75;;;2.97;;
22549;SDS011;11441;57.164;-2.120;2023-05-10T15:46:14;5.57;;;2.60;;
22549;SDS011;11441;57.164;-2.120;2023-05-10T15:48:41;3.72;;;2.88;;